createdAt,value
2023-02-01T00:02:40.653Z,4.40
2023-02-01T00:05:42.088Z,4.03
2023-02-01T00:08:43.467Z,4.50
2023-02-01T00:11:45.317Z,3.77
2023-02-01T00:14:47.261Z,5.40
2023-02-01T00:17:48.657Z,5.27
2023-02-01T00:20:50.052Z,4.60
2023-02-01T00:23:51.457Z,4.97
2023-02-01T00:26:52.909Z,4.87
2023-02-01T00:29:56.218Z,4.47
2023-02-01T00:32:57.599Z,5.53
2023-02-01T00:36:04.295Z,4.87
2023-02-01T00:39:05.760Z,5.30
2023-02-01T00:42:07.182Z,8.23
2023-02-01T00:45:09.134Z,4.53
2023-02-01T00:48:10.553Z,7.17
2023-02-01T00:51:15.735Z,4.07
2023-02-01T00:54:17.172Z,5.67
2023-02-01T00:57:18.675Z,5.17
2023-02-01T01:00:20.371Z,4.13
2023-02-01T01:03:21.943Z,5.13
2023-02-01T01:06:26.313Z,6.03
2023-02-01T01:09:27.843Z,5.80
2023-02-01T01:12:30.357Z,5.67
2023-02-01T01:15:31.805Z,5.10
2023-02-01T01:18:34.498Z,5.13
2023-02-01T01:21:35.893Z,5.57
2023-02-01T01:24:37.446Z,5.30
2023-02-01T01:27:38.875Z,6.50
2023-02-01T01:30:40.586Z,7.57
2023-02-01T01:33:42.368Z,3.57
2023-02-01T01:36:43.814Z,4.67
2023-02-01T01:39:45.270Z,4.43
2023-02-01T01:42:46.723Z,4.00
2023-02-01T01:45:50.457Z,4.03
2023-02-01T01:48:58.058Z,4.27
2023-02-01T01:52:03.488Z,3.17
2023-02-01T01:55:05.679Z,5.07
2023-02-01T01:58:11.049Z,5.03
2023-02-01T02:01:12.528Z,5.67
2023-02-01T02:04:14.413Z,5.33
2023-02-01T02:07:20.865Z,5.37
2023-02-01T02:10:42.481Z,6.93
2023-02-01T02:13:50.639Z,6.93
2023-02-01T02:17:22.745Z,4.70
2023-02-01T02:20:46.177Z,4.47
2023-02-01T02:24:29.530Z,4.20
2023-02-01T02:28:14.482Z,4.73
2023-02-01T02:31:49.576Z,5.57
2023-02-01T02:34:59.871Z,4.93
2023-02-01T02:38:25.128Z,4.10
2023-02-01T02:41:51.355Z,6.10
2023-02-01T02:45:27.416Z,4.40
2023-02-01T02:49:13.039Z,4.67
2023-02-01T02:52:56.367Z,4.10
2023-02-01T02:56:18.202Z,4.07
2023-02-01T02:59:42.771Z,5.50
2023-02-01T03:03:04.283Z,3.80
2023-02-01T03:06:15.755Z,5.30
2023-02-01T03:09:28.303Z,3.30
2023-02-01T03:12:48.395Z,3.80
2023-02-01T03:16:16.455Z,5.00
2023-02-01T03:19:21.044Z,4.40
2023-02-01T03:22:27.813Z,5.23
2023-02-01T03:25:33.418Z,4.07
2023-02-01T03:28:38.026Z,5.67
2023-02-01T03:31:41.716Z,5.07
2023-02-01T03:34:44.938Z,5.50
2023-02-01T03:37:46.739Z,7.10
2023-02-01T03:40:56.816Z,7.00
2023-02-01T03:44:04.997Z,6.20
2023-02-01T03:47:11.506Z,5.73
2023-02-01T03:50:26.265Z,6.27
2023-02-01T03:53:29.730Z,7.50
2023-02-01T03:56:34.096Z,6.30
2023-02-01T03:59:40.145Z,5.80
2023-02-01T04:02:41.954Z,8.73
2023-02-01T04:05:43.418Z,8.37
2023-02-01T04:08:45.504Z,7.07
2023-02-01T04:11:46.902Z,6.50
2023-02-01T04:14:48.279Z,6.60
2023-02-01T04:17:49.694Z,4.10
2023-02-01T04:20:51.113Z,4.87
2023-02-01T04:23:52.879Z,5.27
2023-02-01T04:26:54.345Z,5.13
2023-02-01T04:29:58.446Z,4.87
2023-02-01T04:32:59.963Z,5.33
2023-02-01T04:36:01.357Z,6.23
2023-02-01T04:39:02.766Z,6.03
2023-02-01T04:42:04.733Z,4.03
2023-02-01T04:45:06.854Z,4.30
2023-02-01T04:48:08.256Z,4.43
2023-02-01T04:51:11.253Z,6.10
2023-02-01T04:54:12.708Z,5.83
2023-02-01T04:57:15.783Z,7.00
2023-02-01T05:00:17.635Z,4.73
2023-02-01T05:03:19.495Z,5.07
2023-02-01T05:06:21.333Z,4.10
2023-02-01T05:09:22.789Z,4.53
2023-02-01T05:12:42.779Z,3.40
2023-02-01T05:15:44.309Z,3.80
2023-02-01T05:18:46.460Z,4.33
2023-02-01T05:21:47.844Z,4.73
2023-02-01T05:24:49.302Z,5.87
2023-02-01T05:27:50.798Z,3.37
2023-02-01T05:30:52.270Z,4.33
2023-02-01T05:33:53.749Z,4.20
2023-02-01T05:36:55.234Z,4.47
2023-02-01T05:39:56.725Z,4.73
2023-02-01T05:42:58.097Z,4.83
2023-02-01T05:45:59.560Z,4.33
2023-02-01T05:49:01.034Z,5.13
2023-02-01T05:52:02.990Z,5.17
2023-02-01T05:55:04.770Z,5.30
2023-02-01T05:58:06.588Z,3.80
2023-02-01T06:01:08.023Z,6.10
2023-02-01T06:04:09.467Z,6.17
2023-02-01T06:07:11.291Z,3.57
2023-02-01T06:10:12.752Z,5.20
2023-02-01T06:13:14.134Z,6.37
2023-02-01T06:16:16.386Z,5.30
2023-02-01T06:19:17.810Z,4.80
2023-02-01T06:22:19.298Z,7.87
2023-02-01T06:25:21.889Z,4.57
2023-02-01T06:28:24.011Z,5.87
2023-02-01T06:31:26.699Z,6.83
2023-02-01T06:34:28.415Z,4.80
2023-02-01T06:37:30.371Z,5.90
2023-02-01T06:40:31.755Z,5.40
2023-02-01T06:43:33.776Z,5.77
2023-02-01T06:46:35.295Z,5.40
2023-02-01T06:49:36.798Z,6.67
2023-02-01T06:52:38.185Z,7.60
2023-02-01T06:55:39.687Z,8.97
2023-02-01T06:58:41.333Z,7.43
2023-02-01T07:01:42.724Z,5.33
2023-02-01T07:04:44.157Z,11.10
2023-02-01T07:07:45.595Z,6.03
2023-02-01T07:10:47.066Z,7.03
2023-02-01T07:13:49.115Z,6.70
2023-02-01T07:16:50.528Z,4.93
2023-02-01T07:19:51.905Z,8.83
2023-02-01T07:22:57.810Z,8.50
2023-02-01T07:26:03.076Z,7.50
2023-02-01T07:29:04.485Z,8.40
2023-02-01T07:32:06.110Z,8.47
2023-02-01T07:35:07.908Z,8.37
2023-02-01T07:38:09.378Z,6.80
2023-02-01T07:41:10.870Z,12.10
2023-02-01T07:44:12.259Z,10.00
2023-02-01T07:47:13.680Z,10.20
2023-02-01T07:50:15.384Z,10.07
2023-02-01T07:53:16.941Z,9.13
2023-02-01T07:56:20.180Z,9.83
2023-02-01T07:59:21.745Z,12.50
2023-02-01T08:02:23.176Z,11.60
2023-02-01T08:05:24.708Z,10.50
2023-02-01T08:08:26.166Z,10.73
2023-02-01T08:11:28.285Z,10.27
2023-02-01T08:14:29.762Z,14.13
2023-02-01T08:17:31.498Z,12.13
2023-02-01T08:20:35.284Z,13.47
2023-02-01T08:23:38.297Z,11.00
2023-02-01T08:26:39.858Z,12.57
2023-02-01T08:29:41.259Z,12.90
2023-02-01T08:32:42.711Z,10.57
2023-02-01T08:35:44.681Z,12.43
2023-02-01T08:38:46.385Z,14.70
2023-02-01T08:42:07.763Z,18.13
2023-02-01T08:45:09.706Z,15.77
2023-02-01T08:48:11.192Z,13.53
2023-02-01T08:51:14.168Z,14.47
2023-02-01T08:54:16.107Z,12.83
2023-02-01T08:57:18.030Z,15.53
2023-02-01T09:00:19.576Z,13.97
2023-02-01T09:03:21.191Z,13.33
2023-02-01T09:06:22.690Z,12.97
2023-02-01T09:09:24.662Z,12.00
2023-02-01T09:12:26.099Z,9.37
2023-02-01T09:15:27.510Z,10.80
2023-02-01T09:18:29.178Z,12.23
2023-02-01T09:21:30.688Z,10.87
2023-02-01T09:24:32.148Z,15.93
2023-02-01T09:27:33.541Z,13.03
2023-02-01T09:30:35.291Z,12.43
2023-02-01T09:33:36.761Z,9.73
2023-02-01T09:36:38.131Z,11.83
2023-02-01T09:39:39.522Z,10.07
2023-02-01T09:43:02.575Z,9.70
2023-02-01T09:46:19.500Z,10.80
2023-02-01T09:49:27.087Z,16.53
2023-02-01T09:52:59.327Z,12.40
2023-02-01T09:56:13.150Z,11.90
2023-02-01T09:59:33.333Z,8.80
2023-02-01T10:02:37.733Z,10.93
2023-02-01T10:06:01.832Z,10.40
2023-02-01T10:09:21.370Z,14.33
2023-02-01T10:12:41.619Z,11.13
2023-02-01T10:16:00.684Z,13.77
2023-02-01T10:19:40.574Z,13.73
2023-02-01T10:23:13.790Z,13.67
2023-02-01T10:26:21.464Z,16.17
2023-02-01T10:29:28.075Z,12.90
2023-02-01T10:32:38.170Z,12.90
2023-02-01T10:35:42.469Z,12.07
2023-02-01T10:38:45.116Z,14.93
2023-02-01T10:41:48.063Z,9.63
2023-02-01T10:44:49.571Z,11.33
2023-02-01T10:47:53.302Z,13.27
2023-02-01T10:50:59.817Z,16.27
2023-02-01T10:54:14.587Z,10.23
2023-02-01T10:57:25.567Z,9.43
2023-02-01T11:00:27.729Z,16.60
2023-02-01T11:03:39.447Z,11.50
2023-02-01T11:06:44.377Z,9.27
2023-02-01T11:09:51.658Z,9.43
2023-02-01T11:12:56.283Z,13.17
2023-02-01T11:15:58.417Z,8.40
2023-02-01T11:19:00.153Z,9.63
2023-02-01T11:22:01.989Z,13.77
2023-02-01T11:25:10.359Z,14.43
2023-02-01T11:28:12.522Z,11.57
2023-02-01T11:31:15.177Z,11.77
2023-02-01T11:34:25.612Z,15.13
2023-02-01T11:37:42.232Z,13.27
2023-02-01T11:40:43.947Z,14.07
2023-02-01T11:44:00.007Z,12.93
2023-02-01T11:47:23.042Z,15.33
2023-02-01T11:50:45.012Z,13.13
2023-02-01T11:54:05.812Z,12.50
2023-02-01T11:57:27.131Z,14.90
2023-02-01T12:01:02.497Z,11.93
2023-02-01T12:04:04.292Z,8.50
2023-02-01T12:07:24.842Z,16.37
2023-02-01T12:10:50.647Z,13.83
2023-02-01T12:14:13.837Z,11.87
2023-02-01T12:17:57.068Z,11.97
2023-02-01T12:21:10.989Z,12.53
2023-02-01T12:24:30.757Z,11.43
2023-02-01T12:27:48.579Z,16.03
2023-02-01T12:31:07.905Z,10.03
2023-02-01T12:34:31.272Z,8.90
2023-02-01T12:37:56.446Z,12.87
2023-02-01T12:41:11.913Z,12.97
2023-02-01T12:44:33.226Z,12.17
2023-02-01T12:48:28.561Z,13.73
2023-02-01T12:51:35.462Z,14.90
2023-02-01T12:54:45.567Z,15.67
2023-02-01T12:57:52.806Z,13.20
2023-02-01T13:01:02.284Z,9.27
2023-02-01T13:04:12.480Z,10.80
2023-02-01T13:07:20.071Z,11.70
2023-02-01T13:10:44.502Z,11.40
2023-02-01T13:13:56.300Z,9.90
2023-02-01T13:17:03.738Z,10.60
2023-02-01T13:20:36.069Z,13.57
2023-02-01T13:23:40.424Z,12.23
2023-02-01T13:26:42.303Z,12.23
2023-02-01T13:29:54.219Z,12.37
2023-02-01T13:33:53.813Z,8.03
2023-02-01T13:37:02.788Z,12.13
2023-02-01T13:40:34.874Z,15.27
2023-02-01T13:43:39.785Z,10.53
2023-02-01T13:46:44.648Z,10.60
2023-02-01T13:49:46.417Z,14.57
2023-02-01T13:52:55.917Z,12.97
2023-02-01T13:55:59.353Z,12.10
2023-02-01T13:59:39.138Z,15.77
2023-02-01T14:02:43.657Z,13.93
2023-02-01T14:05:44.992Z,11.97
2023-02-01T14:08:48.205Z,11.57
2023-02-01T14:11:55.073Z,15.47
2023-02-01T14:15:24.543Z,10.23
2023-02-01T14:18:38.618Z,11.33
2023-02-01T14:21:59.674Z,9.30
2023-02-01T14:25:01.148Z,9.37
2023-02-01T14:28:10.547Z,9.33
2023-02-01T14:31:23.675Z,11.00
2023-02-01T14:34:35.676Z,14.13
2023-02-01T14:37:39.954Z,11.50
2023-02-01T14:40:41.473Z,9.83
2023-02-01T14:44:13.478Z,13.20
2023-02-01T14:47:21.120Z,11.73
2023-02-01T14:50:40.969Z,8.60
2023-02-01T14:53:44.428Z,15.77
2023-02-01T14:56:46.973Z,12.37
2023-02-01T14:59:54.786Z,13.93
2023-02-01T15:03:18.476Z,10.67
2023-02-01T15:06:41.691Z,11.13
2023-02-01T15:09:48.948Z,11.10
2023-02-01T15:12:51.428Z,13.17
2023-02-01T15:16:06.974Z,15.93
2023-02-01T15:19:15.614Z,8.30
2023-02-01T15:22:20.269Z,9.20
2023-02-01T15:25:25.598Z,12.90
2023-02-01T15:28:27.634Z,12.13
2023-02-01T15:31:38.025Z,14.23
2023-02-01T15:34:48.756Z,13.83
2023-02-01T15:37:51.422Z,11.07
2023-02-01T15:41:18.067Z,9.63
2023-02-01T15:44:41.444Z,11.67
2023-02-01T15:47:48.623Z,8.27
2023-02-01T15:50:51.100Z,10.60
2023-02-01T15:53:57.860Z,10.97
2023-02-01T15:57:03.889Z,10.13
2023-02-01T16:00:20.767Z,15.03
2023-02-01T16:03:43.570Z,10.43
2023-02-01T16:06:57.297Z,11.03
2023-02-01T16:10:07.212Z,11.83
2023-02-01T16:13:09.107Z,12.10
2023-02-01T16:16:14.724Z,14.13
2023-02-01T16:19:16.330Z,12.03
2023-02-01T16:22:17.778Z,14.60
2023-02-01T16:25:19.363Z,11.10
2023-02-01T16:28:20.740Z,11.80
2023-02-01T16:31:28.169Z,10.77
2023-02-01T16:34:29.742Z,8.80
2023-02-01T16:37:33.263Z,11.87
2023-02-01T16:40:35.507Z,15.50
2023-02-01T16:43:36.993Z,11.60
2023-02-01T16:46:43.959Z,15.33
2023-02-01T16:49:45.895Z,16.27
2023-02-01T16:52:47.642Z,13.07
2023-02-01T16:55:50.307Z,9.70
2023-02-01T16:58:51.759Z,14.60
2023-02-01T17:01:53.137Z,8.70
2023-02-01T17:04:54.624Z,8.60
2023-02-01T17:07:59.476Z,10.67
2023-02-01T17:11:01.136Z,10.63
2023-02-01T17:14:18.901Z,9.93
2023-02-01T17:17:32.818Z,14.80
2023-02-01T17:20:39.366Z,10.63
2023-02-01T17:23:41.091Z,12.43
2023-02-01T17:26:43.902Z,11.93
2023-02-01T17:29:47.013Z,13.43
2023-02-01T17:32:48.640Z,10.57
2023-02-01T17:35:50.839Z,11.07
2023-02-01T17:39:04.832Z,11.70
2023-02-01T17:42:11.545Z,13.50
2023-02-01T17:45:34.565Z,9.93
2023-02-01T17:48:36.031Z,10.40
2023-02-01T17:51:38.644Z,9.67
2023-02-01T17:54:40.107Z,10.17
2023-02-01T17:57:41.550Z,7.23
2023-02-01T18:00:44.386Z,10.97
2023-02-01T18:03:45.817Z,12.77
2023-02-01T18:06:47.199Z,13.57
2023-02-01T18:09:48.658Z,9.43
2023-02-01T18:12:50.185Z,8.70
2023-02-01T18:15:51.568Z,12.77
2023-02-01T18:18:53.451Z,10.67
2023-02-01T18:21:56.851Z,15.87
2023-02-01T18:24:58.237Z,10.37
2023-02-01T18:27:59.677Z,11.67
2023-02-01T18:31:03.025Z,9.07
2023-02-01T18:34:04.561Z,12.23
2023-02-01T18:37:06.121Z,11.37
2023-02-01T18:40:11.492Z,17.93
2023-02-01T18:43:14.006Z,13.47
2023-02-01T18:46:15.795Z,12.70
2023-02-01T18:49:18.716Z,7.23
2023-02-01T18:52:20.205Z,14.77
2023-02-01T18:55:22.715Z,13.10
2023-02-01T18:58:26.303Z,14.80
2023-02-01T19:01:27.811Z,7.47
2023-02-01T19:04:30.187Z,15.07
2023-02-01T19:07:31.847Z,9.17
2023-02-01T19:10:34.235Z,11.90
2023-02-01T19:13:36.621Z,14.13
2023-02-01T19:16:39.776Z,12.20
2023-02-01T19:19:42.063Z,14.53
2023-02-01T19:22:43.931Z,9.13
2023-02-01T19:25:47.489Z,11.10
2023-02-01T19:28:49.055Z,13.70
2023-02-01T19:31:50.506Z,10.07
2023-02-01T19:34:51.994Z,11.23
2023-02-01T19:37:53.388Z,12.20
2023-02-01T19:40:58.088Z,10.63
2023-02-01T19:43:59.503Z,12.37
2023-02-01T19:47:01.197Z,12.47
2023-02-01T19:50:06.879Z,11.53
2023-02-01T19:53:08.398Z,12.13
2023-02-01T19:56:10.090Z,9.80
2023-02-01T19:59:12.902Z,10.23
2023-02-01T20:02:14.800Z,10.17
2023-02-01T20:05:16.991Z,9.20
2023-02-01T20:08:18.836Z,11.93
2023-02-01T20:11:20.348Z,12.83
2023-02-01T20:14:24.166Z,14.77
2023-02-01T20:17:25.692Z,13.40
2023-02-01T20:20:28.539Z,19.37
2023-02-01T20:23:30.031Z,14.53
2023-02-01T20:26:34.401Z,10.87
2023-02-01T20:29:36.617Z,10.93
2023-02-01T20:32:38.033Z,16.83
2023-02-01T20:35:44.274Z,10.50
2023-02-01T20:38:45.861Z,14.17
2023-02-01T20:41:47.353Z,11.63
2023-02-01T20:44:48.802Z,13.27
2023-02-01T20:47:52.455Z,11.57
2023-02-01T20:50:58.071Z,14.27
2023-02-01T20:53:59.505Z,10.90
2023-02-01T20:57:00.901Z,10.23
2023-02-01T21:00:04.328Z,15.37
2023-02-01T21:03:05.793Z,14.33
2023-02-01T21:06:08.226Z,13.63
2023-02-01T21:09:09.627Z,17.27
2023-02-01T21:12:11.181Z,13.80
2023-02-01T21:15:12.588Z,12.70
2023-02-01T21:18:14.000Z,15.43
2023-02-01T21:21:15.401Z,11.27
2023-02-01T21:24:16.773Z,12.83
2023-02-01T21:27:18.173Z,12.70
2023-02-01T21:30:19.540Z,15.00
2023-02-01T21:33:20.975Z,11.80
2023-02-01T21:36:22.393Z,14.00
2023-02-01T21:39:23.820Z,13.03
2023-02-01T21:42:26.511Z,12.53
2023-02-01T21:45:27.905Z,13.67
2023-02-01T21:48:29.998Z,13.20
2023-02-01T21:51:52.417Z,18.97
2023-02-01T21:54:59.191Z,14.57
2023-02-01T21:58:00.577Z,11.87
2023-02-01T22:01:01.999Z,13.20
2023-02-01T22:04:04.186Z,10.57
2023-02-01T22:07:05.612Z,15.43
2023-02-01T22:10:07.384Z,12.97
2023-02-01T22:13:09.207Z,13.17
2023-02-01T22:16:10.639Z,14.10
2023-02-01T22:19:12.848Z,17.47
2023-02-01T22:22:14.232Z,13.13
2023-02-01T22:25:15.664Z,17.43
2023-02-01T22:28:30.430Z,14.40
2023-02-01T22:31:35.961Z,13.53
2023-02-01T22:34:37.534Z,13.03
2023-02-01T22:37:39.137Z,14.30
2023-02-01T22:40:40.504Z,11.07
2023-02-01T22:43:42.100Z,13.23
2023-02-01T22:46:44.562Z,17.57
2023-02-01T22:49:45.944Z,13.90
2023-02-01T22:52:47.379Z,13.57
2023-02-01T22:55:48.760Z,10.47
2023-02-01T22:58:54.781Z,14.83
2023-02-01T23:01:56.173Z,12.87
2023-02-01T23:04:57.581Z,11.37
2023-02-01T23:07:59.003Z,16.67
2023-02-01T23:11:02.437Z,16.90
2023-02-01T23:14:04.230Z,11.90
2023-02-01T23:17:05.610Z,15.00
2023-02-01T23:20:11.026Z,12.73
2023-02-01T23:23:12.444Z,14.53
2023-02-01T23:26:14.529Z,12.40
2023-02-01T23:29:18.065Z,12.17
2023-02-01T23:32:20.678Z,11.60
2023-02-01T23:35:22.262Z,11.97
2023-02-01T23:38:24.493Z,13.37
2023-02-01T23:41:29.832Z,11.30
2023-02-01T23:44:31.855Z,14.67
2023-02-01T23:47:33.473Z,12.83
2023-02-01T23:50:34.867Z,15.10
2023-02-01T23:53:36.279Z,13.60
2023-02-01T23:56:40.572Z,12.60
2023-02-01T23:59:41.970Z,10.83
